sensor_id;sensor_type;location;lat;lon;timestamp;P1;durP1;ratioP1;P2;durP2;ratioP2
75814;SDS011;64451;45.574;14.224;2023-03-21T00:00:25;9.63;;;5.00;;
75814;SDS011;64451;45.574;14.224;2023-03-21T00:02:25;14.40;;;5.50;;
75814;SDS011;64451;45.574;14.224;2023-03-21T00:04:26;12.68;;;5.35;;
75814;SDS011;64451;45.574;14.224;2023-03-21T00:06:26;17.63;;;4.82;;
75814;SDS011;64451;45.574;14.224;2023-03-21T00:08:27;28.10;;;4.35;;
75814;SDS011;64451;45.574;14.224;2023-03-21T00:10:27;23.25;;;3.63;;
75814;SDS011;64451;45.574;14.224;2023-03-21T00:12:27;43.17;;;4.40;;
75814;SDS011;64451;45.574;14.224;2023-03-21T00:14:31;45.95;;;7.85;;
75814;SDS011;64451;45.574;14.224;2023-03-21T00:16:31;35.97;;;9.02;;
75814;SDS011;64451;45.574;14.224;2023-03-21T00:18:33;13.90;;;3.80;;
75814;SDS011;64451;45.574;14.224;2023-03-21T00:20:40;31.10;;;4.55;;
75814;SDS011;64451;45.574;14.224;2023-03-21T00:22:41;18.30;;;3.85;;
75814;SDS011;64451;45.574;14.224;2023-03-21T00:24:41;18.05;;;5.00;;
75814;SDS011;64451;45.574;14.224;2023-03-21T00:26:42;23.13;;;4.38;;
75814;SDS011;64451;45.574;14.224;2023-03-21T00:28:42;28.67;;;4.40;;
75814;SDS011;64451;45.574;14.224;2023-03-21T00:30:43;28.77;;;4.00;;
75814;SDS011;64451;45.574;14.224;2023-03-21T00:32:45;16.98;;;4.38;;
75814;SDS011;64451;45.574;14.224;2023-03-21T00:34:46;18.67;;;4.72;;
75814;SDS011;64451;45.574;14.224;2023-03-21T00:36:47;18.92;;;4.53;;
75814;SDS011;64451;45.574;14.224;2023-03-21T00:38:47;34.95;;;5.05;;
75814;SDS011;64451;45.574;14.224;2023-03-21T00:40:47;14.40;;;4.28;;
75814;SDS011;64451;45.574;14.224;2023-03-21T00:42:48;8.90;;;4.45;;
75814;SDS011;64451;45.574;14.224;2023-03-21T00:44:48;24.25;;;4.68;;
75814;SDS011;64451;45.574;14.224;2023-03-21T00:46:48;34.53;;;4.95;;
75814;SDS011;64451;45.574;14.224;2023-03-21T00:48:49;19.17;;;5.28;;
75814;SDS011;64451;45.574;14.224;2023-03-21T00:50:49;24.50;;;4.68;;
75814;SDS011;64451;45.574;14.224;2023-03-21T00:52:51;18.37;;;4.37;;
75814;SDS011;64451;45.574;14.224;2023-03-21T00:54:51;19.17;;;5.35;;
75814;SDS011;64451;45.574;14.224;2023-03-21T00:56:52;15.63;;;4.97;;
75814;SDS011;64451;45.574;14.224;2023-03-21T00:58:52;13.80;;;5.07;;
75814;SDS011;64451;45.574;14.224;2023-03-21T01:00:53;12.82;;;4.47;;
75814;SDS011;64451;45.574;14.224;2023-03-21T01:02:53;12.18;;;4.15;;
75814;SDS011;64451;45.574;14.224;2023-03-21T01:04:57;11.60;;;4.65;;
75814;SDS011;64451;45.574;14.224;2023-03-21T01:06:57;24.80;;;5.00;;
75814;SDS011;64451;45.574;14.224;2023-03-21T01:08:57;15.10;;;4.97;;
75814;SDS011;64451;45.574;14.224;2023-03-21T01:11:00;13.05;;;4.47;;
75814;SDS011;64451;45.574;14.224;2023-03-21T01:13:03;10.18;;;4.93;;
75814;SDS011;64451;45.574;14.224;2023-03-21T01:15:04;16.63;;;4.63;;
75814;SDS011;64451;45.574;14.224;2023-03-21T01:17:04;9.45;;;5.43;;
75814;SDS011;64451;45.574;14.224;2023-03-21T01:19:05;15.18;;;5.18;;
75814;SDS011;64451;45.574;14.224;2023-03-21T01:21:11;13.32;;;5.20;;
75814;SDS011;64451;45.574;14.224;2023-03-21T01:23:13;16.90;;;5.88;;
75814;SDS011;64451;45.574;14.224;2023-03-21T01:25:14;10.52;;;5.28;;
75814;SDS011;64451;45.574;14.224;2023-03-21T01:27:14;11.15;;;4.40;;
75814;SDS011;64451;45.574;14.224;2023-03-21T01:29:15;9.27;;;4.80;;
75814;SDS011;64451;45.574;14.224;2023-03-21T01:31:16;19.65;;;5.28;;
75814;SDS011;64451;45.574;14.224;2023-03-21T01:33:17;11.90;;;5.18;;
75814;SDS011;64451;45.574;14.224;2023-03-21T01:35:19;24.75;;;8.70;;
75814;SDS011;64451;45.574;14.224;2023-03-21T01:37:19;11.55;;;4.55;;
75814;SDS011;64451;45.574;14.224;2023-03-21T01:39:20;17.92;;;4.90;;
75814;SDS011;64451;45.574;14.224;2023-03-21T01:41:30;10.55;;;5.40;;
75814;SDS011;64451;45.574;14.224;2023-03-21T01:43:36;9.30;;;4.60;;
75814;SDS011;64451;45.574;14.224;2023-03-21T01:48:20;8.37;;;4.20;;
75814;SDS011;64451;45.574;14.224;2023-03-21T01:50:20;10.85;;;5.00;;
75814;SDS011;64451;45.574;14.224;2023-03-21T01:52:42;15.52;;;4.72;;
75814;SDS011;64451;45.574;14.224;2023-03-21T01:54:45;7.28;;;4.38;;
75814;SDS011;64451;45.574;14.224;2023-03-21T01:56:46;9.70;;;4.80;;
75814;SDS011;64451;45.574;14.224;2023-03-21T01:58:47;15.40;;;4.50;;
75814;SDS011;64451;45.574;14.224;2023-03-21T02:00:50;8.15;;;4.25;;
75814;SDS011;64451;45.574;14.224;2023-03-21T02:02:51;11.90;;;5.38;;
75814;SDS011;64451;45.574;14.224;2023-03-21T02:04:54;22.20;;;4.55;;
75814;SDS011;64451;45.574;14.224;2023-03-21T02:07:15;18.45;;;5.05;;
75814;SDS011;64451;45.574;14.224;2023-03-21T02:09:25;16.08;;;4.20;;
75814;SDS011;64451;45.574;14.224;2023-03-21T02:11:30;16.60;;;5.30;;
75814;SDS011;64451;45.574;14.224;2023-03-21T02:13:31;15.52;;;4.43;;
75814;SDS011;64451;45.574;14.224;2023-03-21T02:15:32;8.32;;;4.97;;
75814;SDS011;64451;45.574;14.224;2023-03-21T02:27:49;8.75;;;4.45;;
75814;SDS011;64451;45.574;14.224;2023-03-21T02:32:25;21.40;;;4.57;;
75814;SDS011;64451;45.574;14.224;2023-03-21T02:34:42;48.85;;;5.00;;
75814;SDS011;64451;45.574;14.224;2023-03-21T02:37:01;13.80;;;4.65;;
75814;SDS011;64451;45.574;14.224;2023-03-21T02:45:59;11.27;;;4.97;;
75814;SDS011;64451;45.574;14.224;2023-03-21T02:48:06;19.35;;;4.32;;
75814;SDS011;64451;45.574;14.224;2023-03-21T02:50:18;12.73;;;4.32;;
75814;SDS011;64451;45.574;14.224;2023-03-21T02:52:27;14.40;;;4.00;;
75814;SDS011;64451;45.574;14.224;2023-03-21T02:54:29;14.55;;;4.68;;
75814;SDS011;64451;45.574;14.224;2023-03-21T02:56:32;14.43;;;4.50;;
75814;SDS011;64451;45.574;14.224;2023-03-21T02:58:33;10.23;;;4.82;;
75814;SDS011;64451;45.574;14.224;2023-03-21T03:00:43;16.90;;;5.55;;
75814;SDS011;64451;45.574;14.224;2023-03-21T03:02:45;10.43;;;4.55;;
75814;SDS011;64451;45.574;14.224;2023-03-21T03:04:45;18.83;;;5.60;;
75814;SDS011;64451;45.574;14.224;2023-03-21T03:11:34;8.20;;;4.13;;
75814;SDS011;64451;45.574;14.224;2023-03-21T03:22:30;11.23;;;4.53;;
75814;SDS011;64451;45.574;14.224;2023-03-21T03:24:45;16.25;;;4.45;;
75814;SDS011;64451;45.574;14.224;2023-03-21T03:26:54;11.05;;;3.78;;
75814;SDS011;64451;45.574;14.224;2023-03-21T03:28:59;14.07;;;4.13;;
75814;SDS011;64451;45.574;14.224;2023-03-21T03:31:04;12.07;;;4.18;;
75814;SDS011;64451;45.574;14.224;2023-03-21T03:33:07;15.68;;;4.38;;
75814;SDS011;64451;45.574;14.224;2023-03-21T03:35:10;15.57;;;3.85;;
75814;SDS011;64451;45.574;14.224;2023-03-21T03:37:15;22.75;;;4.22;;
75814;SDS011;64451;45.574;14.224;2023-03-21T03:39:21;11.63;;;4.63;;
75814;SDS011;64451;45.574;14.224;2023-03-21T03:41:26;20.13;;;4.15;;
75814;SDS011;64451;45.574;14.224;2023-03-21T03:43:35;9.52;;;4.82;;
75814;SDS011;64451;45.574;14.224;2023-03-21T03:45:50;21.63;;;4.80;;
75814;SDS011;64451;45.574;14.224;2023-03-21T03:50:49;9.47;;;3.87;;
75814;SDS011;64451;45.574;14.224;2023-03-21T03:55:13;15.07;;;4.32;;
75814;SDS011;64451;45.574;14.224;2023-03-21T03:57:16;16.58;;;4.22;;
75814;SDS011;64451;45.574;14.224;2023-03-21T03:59:18;18.75;;;4.85;;
75814;SDS011;64451;45.574;14.224;2023-03-21T04:01:20;14.77;;;5.13;;
75814;SDS011;64451;45.574;14.224;2023-03-21T04:03:21;8.18;;;4.13;;
75814;SDS011;64451;45.574;14.224;2023-03-21T04:05:22;8.52;;;4.70;;
75814;SDS011;64451;45.574;14.224;2023-03-21T04:07:23;18.45;;;4.95;;
75814;SDS011;64451;45.574;14.224;2023-03-21T04:09:24;16.67;;;4.45;;
75814;SDS011;64451;45.574;14.224;2023-03-21T04:11:27;21.08;;;4.82;;
75814;SDS011;64451;45.574;14.224;2023-03-21T04:13:28;20.40;;;5.20;;
75814;SDS011;64451;45.574;14.224;2023-03-21T04:15:28;32.38;;;6.10;;
75814;SDS011;64451;45.574;14.224;2023-03-21T04:17:28;14.80;;;4.75;;
75814;SDS011;64451;45.574;14.224;2023-03-21T04:19:28;10.68;;;4.97;;
75814;SDS011;64451;45.574;14.224;2023-03-21T04:21:29;8.50;;;3.72;;
75814;SDS011;64451;45.574;14.224;2023-03-21T04:23:29;12.60;;;3.72;;
75814;SDS011;64451;45.574;14.224;2023-03-21T04:25:31;12.07;;;4.18;;
75814;SDS011;64451;45.574;14.224;2023-03-21T04:27:33;15.35;;;4.43;;
75814;SDS011;64451;45.574;14.224;2023-03-21T04:29:33;12.80;;;4.82;;
75814;SDS011;64451;45.574;14.224;2023-03-21T04:31:34;12.20;;;4.65;;
75814;SDS011;64451;45.574;14.224;2023-03-21T04:33:34;8.00;;;4.60;;
75814;SDS011;64451;45.574;14.224;2023-03-21T04:35:37;10.57;;;4.70;;
75814;SDS011;64451;45.574;14.224;2023-03-21T04:37:38;12.15;;;4.65;;
75814;SDS011;64451;45.574;14.224;2023-03-21T04:39:38;11.10;;;4.97;;
75814;SDS011;64451;45.574;14.224;2023-03-21T04:46:32;16.02;;;5.53;;
75814;SDS011;64451;45.574;14.224;2023-03-21T04:48:32;22.35;;;5.80;;
75814;SDS011;64451;45.574;14.224;2023-03-21T04:50:39;9.70;;;5.07;;
75814;SDS011;64451;45.574;14.224;2023-03-21T04:52:42;9.40;;;4.97;;
75814;SDS011;64451;45.574;14.224;2023-03-21T04:54:54;9.45;;;4.80;;
75814;SDS011;64451;45.574;14.224;2023-03-21T04:57:01;20.77;;;5.38;;
75814;SDS011;64451;45.574;14.224;2023-03-21T04:59:13;13.57;;;4.63;;
75814;SDS011;64451;45.574;14.224;2023-03-21T05:01:20;12.40;;;5.45;;
75814;SDS011;64451;45.574;14.224;2023-03-21T05:03:30;13.80;;;5.65;;
75814;SDS011;64451;45.574;14.224;2023-03-21T05:05:36;10.93;;;5.22;;
75814;SDS011;64451;45.574;14.224;2023-03-21T05:07:38;12.07;;;5.45;;
75814;SDS011;64451;45.574;14.224;2023-03-21T05:09:40;24.80;;;9.70;;
75814;SDS011;64451;45.574;14.224;2023-03-21T05:11:49;24.23;;;6.60;;
75814;SDS011;64451;45.574;14.224;2023-03-21T05:13:59;10.32;;;5.72;;
75814;SDS011;64451;45.574;14.224;2023-03-21T05:16:00;15.05;;;7.10;;
75814;SDS011;64451;45.574;14.224;2023-03-21T05:18:09;17.02;;;6.97;;
75814;SDS011;64451;45.574;14.224;2023-03-21T05:20:19;17.75;;;6.95;;
75814;SDS011;64451;45.574;14.224;2023-03-21T05:22:21;19.55;;;7.60;;
75814;SDS011;64451;45.574;14.224;2023-03-21T05:24:29;11.27;;;5.38;;
75814;SDS011;64451;45.574;14.224;2023-03-21T05:26:30;25.98;;;7.93;;
75814;SDS011;64451;45.574;14.224;2023-03-21T05:28:34;13.57;;;6.43;;
75814;SDS011;64451;45.574;14.224;2023-03-21T05:30:35;15.60;;;4.55;;
75814;SDS011;64451;45.574;14.224;2023-03-21T05:32:45;20.48;;;6.05;;
75814;SDS011;64451;45.574;14.224;2023-03-21T05:34:45;10.23;;;4.90;;
75814;SDS011;64451;45.574;14.224;2023-03-21T05:36:46;9.52;;;4.88;;
75814;SDS011;64451;45.574;14.224;2023-03-21T05:38:56;17.95;;;5.00;;
75814;SDS011;64451;45.574;14.224;2023-03-21T05:40:56;11.82;;;4.78;;
75814;SDS011;64451;45.574;14.224;2023-03-21T05:42:56;8.20;;;4.25;;
75814;SDS011;64451;45.574;14.224;2023-03-21T05:44:57;9.95;;;5.70;;
75814;SDS011;64451;45.574;14.224;2023-03-21T05:47:00;10.25;;;5.43;;
75814;SDS011;64451;45.574;14.224;2023-03-21T05:49:10;12.02;;;6.32;;
75814;SDS011;64451;45.574;14.224;2023-03-21T05:51:14;15.63;;;6.15;;
75814;SDS011;64451;45.574;14.224;2023-03-21T05:53:14;11.95;;;4.68;;
75814;SDS011;64451;45.574;14.224;2023-03-21T05:55:15;13.57;;;5.20;;
75814;SDS011;64451;45.574;14.224;2023-03-21T05:57:15;11.55;;;5.35;;
75814;SDS011;64451;45.574;14.224;2023-03-21T05:59:18;31.73;;;13.48;;
75814;SDS011;64451;45.574;14.224;2023-03-21T06:01:18;12.05;;;5.97;;
75814;SDS011;64451;45.574;14.224;2023-03-21T06:03:18;13.05;;;5.50;;
75814;SDS011;64451;45.574;14.224;2023-03-21T06:05:22;16.85;;;5.53;;
75814;SDS011;64451;45.574;14.224;2023-03-21T06:07:22;10.30;;;5.40;;
75814;SDS011;64451;45.574;14.224;2023-03-21T06:09:23;11.95;;;5.68;;
75814;SDS011;64451;45.574;14.224;2023-03-21T06:11:30;11.70;;;6.03;;
75814;SDS011;64451;45.574;14.224;2023-03-21T06:13:33;11.77;;;5.68;;
75814;SDS011;64451;45.574;14.224;2023-03-21T06:15:37;9.68;;;5.43;;
75814;SDS011;64451;45.574;14.224;2023-03-21T06:17:38;27.10;;;6.10;;
75814;SDS011;64451;45.574;14.224;2023-03-21T06:19:38;11.93;;;6.38;;
75814;SDS011;64451;45.574;14.224;2023-03-21T06:21:38;17.35;;;6.25;;
75814;SDS011;64451;45.574;14.224;2023-03-21T06:23:39;22.00;;;7.40;;
75814;SDS011;64451;45.574;14.224;2023-03-21T06:25:39;11.65;;;5.68;;
75814;SDS011;64451;45.574;14.224;2023-03-21T06:27:40;11.93;;;6.53;;
75814;SDS011;64451;45.574;14.224;2023-03-21T06:29:40;14.98;;;8.52;;
75814;SDS011;64451;45.574;14.224;2023-03-21T06:31:40;14.23;;;7.47;;
75814;SDS011;64451;45.574;14.224;2023-03-21T06:33:41;16.15;;;6.75;;
75814;SDS011;64451;45.574;14.224;2023-03-21T06:35:41;13.70;;;7.57;;
75814;SDS011;64451;45.574;14.224;2023-03-21T06:37:42;12.25;;;6.47;;
75814;SDS011;64451;45.574;14.224;2023-03-21T06:39:44;20.95;;;7.00;;
75814;SDS011;64451;45.574;14.224;2023-03-21T06:41:48;12.32;;;6.53;;
75814;SDS011;64451;45.574;14.224;2023-03-21T06:43:49;13.43;;;6.00;;
75814;SDS011;64451;45.574;14.224;2023-03-21T06:45:49;16.58;;;7.03;;
75814;SDS011;64451;45.574;14.224;2023-03-21T06:47:50;25.58;;;6.32;;
75814;SDS011;64451;45.574;14.224;2023-03-21T06:49:51;24.67;;;8.15;;
75814;SDS011;64451;45.574;14.224;2023-03-21T06:51:52;35.35;;;8.98;;
75814;SDS011;64451;45.574;14.224;2023-03-21T06:53:53;17.95;;;7.63;;
75814;SDS011;64451;45.574;14.224;2023-03-21T06:55:55;16.63;;;8.35;;
75814;SDS011;64451;45.574;14.224;2023-03-21T06:57:56;29.40;;;9.38;;
75814;SDS011;64451;45.574;14.224;2023-03-21T06:59:57;22.92;;;10.15;;
75814;SDS011;64451;45.574;14.224;2023-03-21T07:02:03;17.08;;;10.27;;
75814;SDS011;64451;45.574;14.224;2023-03-21T07:04:04;19.58;;;9.68;;
75814;SDS011;64451;45.574;14.224;2023-03-21T07:06:08;29.77;;;9.73;;
75814;SDS011;64451;45.574;14.224;2023-03-21T07:08:18;26.77;;;9.98;;
75814;SDS011;64451;45.574;14.224;2023-03-21T07:12:28;29.42;;;9.52;;
75814;SDS011;64451;45.574;14.224;2023-03-21T07:14:32;24.27;;;9.77;;
75814;SDS011;64451;45.574;14.224;2023-03-21T07:16:33;29.58;;;10.98;;
75814;SDS011;64451;45.574;14.224;2023-03-21T07:18:33;20.58;;;10.55;;
75814;SDS011;64451;45.574;14.224;2023-03-21T07:20:47;30.33;;;13.35;;
75814;SDS011;64451;45.574;14.224;2023-03-21T07:23:04;24.45;;;10.60;;
75814;SDS011;64451;45.574;14.224;2023-03-21T07:25:05;23.38;;;9.85;;
75814;SDS011;64451;45.574;14.224;2023-03-21T07:27:06;22.38;;;10.63;;
75814;SDS011;64451;45.574;14.224;2023-03-21T07:29:07;26.65;;;10.98;;
75814;SDS011;64451;45.574;14.224;2023-03-21T07:33:35;30.13;;;12.55;;
75814;SDS011;64451;45.574;14.224;2023-03-21T07:35:41;26.48;;;11.55;;
75814;SDS011;64451;45.574;14.224;2023-03-21T07:37:41;34.05;;;12.40;;
75814;SDS011;64451;45.574;14.224;2023-03-21T07:39:42;30.50;;;11.85;;
75814;SDS011;64451;45.574;14.224;2023-03-21T07:41:42;20.83;;;10.40;;
75814;SDS011;64451;45.574;14.224;2023-03-21T07:43:43;35.28;;;11.10;;
75814;SDS011;64451;45.574;14.224;2023-03-21T07:45:58;28.73;;;11.90;;
75814;SDS011;64451;45.574;14.224;2023-03-21T07:48:05;20.98;;;12.18;;
75814;SDS011;64451;45.574;14.224;2023-03-21T07:50:05;27.45;;;11.38;;
75814;SDS011;64451;45.574;14.224;2023-03-21T07:52:06;22.00;;;10.73;;
75814;SDS011;64451;45.574;14.224;2023-03-21T07:54:13;19.25;;;10.95;;
75814;SDS011;64451;45.574;14.224;2023-03-21T07:56:37;26.10;;;14.20;;
75814;SDS011;64451;45.574;14.224;2023-03-21T07:58:40;17.95;;;10.07;;
75814;SDS011;64451;45.574;14.224;2023-03-21T08:00:46;16.48;;;9.38;;
75814;SDS011;64451;45.574;14.224;2023-03-21T08:03:32;20.40;;;10.75;;
75814;SDS011;64451;45.574;14.224;2023-03-21T08:05:12;18.25;;;9.65;;
75814;SDS011;64451;45.574;14.224;2023-03-21T08:07:12;17.15;;;7.80;;
75814;SDS011;64451;45.574;14.224;2023-03-21T08:09:12;15.25;;;8.52;;
75814;SDS011;64451;45.574;14.224;2023-03-21T08:11:13;17.20;;;8.23;;
75814;SDS011;64451;45.574;14.224;2023-03-21T08:13:16;17.38;;;9.85;;
75814;SDS011;64451;45.574;14.224;2023-03-21T08:15:16;18.80;;;10.27;;
75814;SDS011;64451;45.574;14.224;2023-03-21T08:17:24;20.23;;;11.45;;
75814;SDS011;64451;45.574;14.224;2023-03-21T08:22:13;23.40;;;11.02;;
75814;SDS011;64451;45.574;14.224;2023-03-21T08:24:16;20.95;;;11.95;;
75814;SDS011;64451;45.574;14.224;2023-03-21T08:26:19;17.55;;;10.57;;
75814;SDS011;64451;45.574;14.224;2023-03-21T08:28:20;22.95;;;9.55;;
75814;SDS011;64451;45.574;14.224;2023-03-21T08:30:22;17.08;;;9.10;;
75814;SDS011;64451;45.574;14.224;2023-03-21T08:32:25;19.38;;;7.55;;
75814;SDS011;64451;45.574;14.224;2023-03-21T08:34:30;16.55;;;8.30;;
75814;SDS011;64451;45.574;14.224;2023-03-21T08:36:42;14.63;;;8.82;;
75814;SDS011;64451;45.574;14.224;2023-03-21T08:38:43;17.90;;;9.00;;
75814;SDS011;64451;45.574;14.224;2023-03-21T08:40:45;17.92;;;8.90;;
75814;SDS011;64451;45.574;14.224;2023-03-21T08:42:45;23.70;;;9.20;;
75814;SDS011;64451;45.574;14.224;2023-03-21T08:44:46;16.42;;;9.57;;
75814;SDS011;64451;45.574;14.224;2023-03-21T08:46:46;16.25;;;9.80;;
75814;SDS011;64451;45.574;14.224;2023-03-21T08:48:47;16.00;;;9.00;;
75814;SDS011;64451;45.574;14.224;2023-03-21T08:50:47;17.13;;;9.45;;
75814;SDS011;64451;45.574;14.224;2023-03-21T08:52:48;20.60;;;10.55;;
75814;SDS011;64451;45.574;14.224;2023-03-21T08:54:48;18.77;;;10.55;;
75814;SDS011;64451;45.574;14.224;2023-03-21T08:56:49;16.58;;;8.88;;
75814;SDS011;64451;45.574;14.224;2023-03-21T08:58:49;16.77;;;9.85;;
75814;SDS011;64451;45.574;14.224;2023-03-21T09:00:50;18.77;;;11.27;;
75814;SDS011;64451;45.574;14.224;2023-03-21T09:02:51;24.63;;;11.52;;
75814;SDS011;64451;45.574;14.224;2023-03-21T09:04:59;20.90;;;10.80;;
75814;SDS011;64451;45.574;14.224;2023-03-21T09:09:21;19.38;;;12.35;;
75814;SDS011;64451;45.574;14.224;2023-03-21T09:11:21;19.77;;;12.65;;
75814;SDS011;64451;45.574;14.224;2023-03-21T09:13:22;23.83;;;13.07;;
75814;SDS011;64451;45.574;14.224;2023-03-21T09:15:25;20.20;;;12.55;;
75814;SDS011;64451;45.574;14.224;2023-03-21T09:17:28;18.42;;;12.68;;
75814;SDS011;64451;45.574;14.224;2023-03-21T09:19:28;21.60;;;13.20;;
75814;SDS011;64451;45.574;14.224;2023-03-21T09:21:29;21.30;;;12.50;;
75814;SDS011;64451;45.574;14.224;2023-03-21T09:23:29;18.73;;;10.85;;
75814;SDS011;64451;45.574;14.224;2023-03-21T09:25:30;17.90;;;10.70;;
75814;SDS011;64451;45.574;14.224;2023-03-21T09:27:32;16.05;;;9.90;;
75814;SDS011;64451;45.574;14.224;2023-03-21T09:29:33;14.95;;;9.70;;
75814;SDS011;64451;45.574;14.224;2023-03-21T09:31:34;12.90;;;8.40;;
75814;SDS011;64451;45.574;14.224;2023-03-21T09:33:34;12.05;;;7.75;;
75814;SDS011;64451;45.574;14.224;2023-03-21T09:35:35;18.25;;;8.93;;
75814;SDS011;64451;45.574;14.224;2023-03-21T09:37:35;12.88;;;8.00;;
75814;SDS011;64451;45.574;14.224;2023-03-21T09:39:41;14.95;;;7.38;;
75814;SDS011;64451;45.574;14.224;2023-03-21T09:48:16;7.80;;;4.85;;
75814;SDS011;64451;45.574;14.224;2023-03-21T09:50:34;10.13;;;5.28;;
75814;SDS011;64451;45.574;14.224;2023-03-21T09:52:46;15.73;;;6.53;;
75814;SDS011;64451;45.574;14.224;2023-03-21T09:54:58;9.30;;;5.85;;
75814;SDS011;64451;45.574;14.224;2023-03-21T09:57:00;10.95;;;5.28;;
75814;SDS011;64451;45.574;14.224;2023-03-21T09:59:18;6.70;;;3.80;;
75814;SDS011;64451;45.574;14.224;2023-03-21T10:01:25;7.47;;;3.97;;
75814;SDS011;64451;45.574;14.224;2023-03-21T10:03:29;5.20;;;3.22;;
75814;SDS011;64451;45.574;14.224;2023-03-21T10:05:34;8.90;;;4.07;;
75814;SDS011;64451;45.574;14.224;2023-03-21T10:07:40;8.73;;;4.15;;
75814;SDS011;64451;45.574;14.224;2023-03-21T10:09:46;9.50;;;3.72;;
75814;SDS011;64451;45.574;14.224;2023-03-21T10:11:52;5.78;;;3.65;;
75814;SDS011;64451;45.574;14.224;2023-03-21T10:14:27;5.55;;;3.03;;
75814;SDS011;64451;45.574;14.224;2023-03-21T10:16:34;7.50;;;3.40;;
75814;SDS011;64451;45.574;14.224;2023-03-21T10:18:46;7.75;;;3.47;;
75814;SDS011;64451;45.574;14.224;2023-03-21T10:20:47;6.75;;;2.88;;
75814;SDS011;64451;45.574;14.224;2023-03-21T10:22:59;6.03;;;3.28;;
75814;SDS011;64451;45.574;14.224;2023-03-21T10:25:03;5.60;;;3.08;;
75814;SDS011;64451;45.574;14.224;2023-03-21T10:27:05;5.15;;;2.80;;
75814;SDS011;64451;45.574;14.224;2023-03-21T10:29:09;6.15;;;3.22;;
75814;SDS011;64451;45.574;14.224;2023-03-21T10:31:13;6.70;;;2.97;;
75814;SDS011;64451;45.574;14.224;2023-03-21T10:33:18;6.70;;;2.97;;
75814;SDS011;64451;45.574;14.224;2023-03-21T10:35:36;5.00;;;3.00;;
75814;SDS011;64451;45.574;14.224;2023-03-21T10:37:38;5.70;;;2.90;;
75814;SDS011;64451;45.574;14.224;2023-03-21T10:39:49;7.30;;;2.85;;
75814;SDS011;64451;45.574;14.224;2023-03-21T10:41:52;4.90;;;2.47;;
75814;SDS011;64451;45.574;14.224;2023-03-21T10:44:12;5.07;;;3.08;;
75814;SDS011;64451;45.574;14.224;2023-03-21T10:46:16;5.40;;;2.92;;
75814;SDS011;64451;45.574;14.224;2023-03-21T10:48:22;5.45;;;2.95;;
75814;SDS011;64451;45.574;14.224;2023-03-21T10:50:26;4.80;;;2.65;;
75814;SDS011;64451;45.574;14.224;2023-03-21T10:52:29;10.55;;;2.53;;
75814;SDS011;64451;45.574;14.224;2023-03-21T10:54:40;6.55;;;2.17;;
75814;SDS011;64451;45.574;14.224;2023-03-21T10:58:57;4.85;;;2.58;;
75814;SDS011;64451;45.574;14.224;2023-03-21T11:01:06;5.68;;;2.85;;
75814;SDS011;64451;45.574;14.224;2023-03-21T11:03:34;5.00;;;2.80;;
75814;SDS011;64451;45.574;14.224;2023-03-21T11:05:43;5.20;;;2.40;;
75814;SDS011;64451;45.574;14.224;2023-03-21T11:07:43;5.22;;;2.50;;
75814;SDS011;64451;45.574;14.224;2023-03-21T11:10:11;7.10;;;2.58;;
75814;SDS011;64451;45.574;14.224;2023-03-21T11:14:48;4.47;;;2.10;;
75814;SDS011;64451;45.574;14.224;2023-03-21T11:21:41;4.45;;;2.15;;
75814;SDS011;64451;45.574;14.224;2023-03-21T11:23:45;4.05;;;2.00;;
75814;SDS011;64451;45.574;14.224;2023-03-21T11:25:48;3.42;;;1.92;;
75814;SDS011;64451;45.574;14.224;2023-03-21T11:30:51;5.35;;;2.92;;
75814;SDS011;64451;45.574;14.224;2023-03-21T11:33:03;3.50;;;1.77;;
75814;SDS011;64451;45.574;14.224;2023-03-21T11:35:16;3.85;;;1.95;;
75814;SDS011;64451;45.574;14.224;2023-03-21T11:37:39;3.97;;;2.00;;
75814;SDS011;64451;45.574;14.224;2023-03-21T11:39:45;2.40;;;1.55;;
75814;SDS011;64451;45.574;14.224;2023-03-21T11:41:48;4.25;;;1.83;;
75814;SDS011;64451;45.574;14.224;2023-03-21T11:44:00;6.72;;;3.20;;
75814;SDS011;64451;45.574;14.224;2023-03-21T11:46:21;4.22;;;2.00;;
75814;SDS011;64451;45.574;14.224;2023-03-21T11:48:23;9.45;;;5.28;;
75814;SDS011;64451;45.574;14.224;2023-03-21T11:50:34;5.78;;;3.30;;
75814;SDS011;64451;45.574;14.224;2023-03-21T11:55:31;3.58;;;1.83;;
75814;SDS011;64451;45.574;14.224;2023-03-21T12:07:25;3.60;;;1.50;;
75814;SDS011;64451;45.574;14.224;2023-03-21T12:12:45;2.20;;;1.40;;
75814;SDS011;64451;45.574;14.224;2023-03-21T12:25:10;2.75;;;1.60;;
75814;SDS011;64451;45.574;14.224;2023-03-21T12:33:02;3.60;;;1.42;;
75814;SDS011;64451;45.574;14.224;2023-03-21T12:35:24;2.00;;;1.20;;
75814;SDS011;64451;45.574;14.224;2023-03-21T12:37:37;5.22;;;1.73;;
75814;SDS011;64451;45.574;14.224;2023-03-21T12:39:52;2.90;;;1.33;;
75814;SDS011;64451;45.574;14.224;2023-03-21T12:45:10;2.00;;;1.40;;
75814;SDS011;64451;45.574;14.224;2023-03-21T12:47:31;3.50;;;1.65;;
75814;SDS011;64451;45.574;14.224;2023-03-21T12:51:38;2.38;;;1.30;;
75814;SDS011;64451;45.574;14.224;2023-03-21T12:56:23;4.35;;;1.70;;
75814;SDS011;64451;45.574;14.224;2023-03-21T12:58:28;2.53;;;1.38;;
75814;SDS011;64451;45.574;14.224;2023-03-21T13:00:46;2.75;;;1.30;;
75814;SDS011;64451;45.574;14.224;2023-03-21T13:05:44;2.25;;;1.20;;
75814;SDS011;64451;45.574;14.224;2023-03-21T13:10:19;3.08;;;1.55;;
75814;SDS011;64451;45.574;14.224;2023-03-21T13:12:23;1.87;;;1.30;;
75814;SDS011;64451;45.574;14.224;2023-03-21T13:14:57;2.33;;;1.20;;
75814;SDS011;64451;45.574;14.224;2023-03-21T13:17:29;3.45;;;1.50;;
75814;SDS011;64451;45.574;14.224;2023-03-21T13:27:27;3.08;;;1.50;;
75814;SDS011;64451;45.574;14.224;2023-03-21T13:29:33;2.90;;;1.25;;
75814;SDS011;64451;45.574;14.224;2023-03-21T13:31:49;3.17;;;1.52;;
75814;SDS011;64451;45.574;14.224;2023-03-21T13:33:53;7.68;;;2.90;;
75814;SDS011;64451;45.574;14.224;2023-03-21T13:35:59;3.80;;;1.73;;
75814;SDS011;64451;45.574;14.224;2023-03-21T13:38:20;1.92;;;1.10;;
75814;SDS011;64451;45.574;14.224;2023-03-21T13:40:25;1.88;;;1.20;;
75814;SDS011;64451;45.574;14.224;2023-03-21T13:42:33;2.08;;;1.17;;
75814;SDS011;64451;45.574;14.224;2023-03-21T13:44:47;3.58;;;1.70;;
75814;SDS011;64451;45.574;14.224;2023-03-21T13:46:52;1.65;;;1.15;;
75814;SDS011;64451;45.574;14.224;2023-03-21T13:51:17;2.90;;;1.23;;
75814;SDS011;64451;45.574;14.224;2023-03-21T13:54:13;2.15;;;1.10;;
75814;SDS011;64451;45.574;14.224;2023-03-21T14:03:40;2.63;;;1.27;;
75814;SDS011;64451;45.574;14.224;2023-03-21T14:05:47;1.80;;;1.10;;
75814;SDS011;64451;45.574;14.224;2023-03-21T14:07:52;1.70;;;1.30;;
75814;SDS011;64451;45.574;14.224;2023-03-21T14:09:57;2.10;;;1.00;;
75814;SDS011;64451;45.574;14.224;2023-03-21T14:12:00;1.38;;;1.00;;
75814;SDS011;64451;45.574;14.224;2023-03-21T14:14:03;2.85;;;1.10;;
75814;SDS011;64451;45.574;14.224;2023-03-21T14:16:06;1.90;;;1.10;;
75814;SDS011;64451;45.574;14.224;2023-03-21T14:18:15;2.97;;;1.30;;
75814;SDS011;64451;45.574;14.224;2023-03-21T14:20:33;1.38;;;1.10;;
75814;SDS011;64451;45.574;14.224;2023-03-21T14:22:40;2.05;;;1.10;;
75814;SDS011;64451;45.574;14.224;2023-03-21T14:24:59;1.58;;;1.10;;
75814;SDS011;64451;45.574;14.224;2023-03-21T14:27:00;3.88;;;1.20;;
75814;SDS011;64451;45.574;14.224;2023-03-21T14:29:06;1.92;;;1.30;;